Time;durP1;ratioP1;P1;durP2;ratioP2;P2;SDS_P1;SDS_P2;PMS_P1;PMS_P2;Temp;Humidity;BMP_temperature;BMP_pressure;BME280_temperature;BME280_humidity;BME280_pressure;Samples;Min_cycle;Max_cycle;Signal;HPM_P1;HPM_P2
2024/04/05 00:00:21;;;;;;;1999.90;999.90;;;14.30;99.90;;;;;;5065930;28;20034;-67
2024/04/05 00:02:47;;;;;;;1999.90;999.90;;;14.30;99.90;;;;;;5057464;28;20025;-67
2024/04/05 00:05:13;;;;;;;1999.90;999.90;;;14.30;99.90;;;;;;5062088;28;20032;-67
2024/04/05 00:07:39;;;;;;;1999.90;999.90;;;14.40;99.90;;;;;;5066951;28;20025;-67
2024/04/05 00:10:08;;;;;;;1999.90;999.90;;;14.20;99.90;;;;;;5060892;28;20485;-67
2024/04/05 00:12:34;;;;;;;1999.90;999.90;;;14.20;99.90;;;;;;5070746;28;20086;-67
2024/04/05 00:15:00;;;;;;;1999.90;999.90;;;14.10;99.90;;;;;;5060691;28;20484;-67
2024/04/05 00:17:26;;;;;;;1999.90;999.90;;;14.00;99.90;;;;;;5056568;28;20037;-67
2024/04/05 00:19:55;;;;;;;1999.90;999.90;;;14.00;99.90;;;;;;5065254;28;20469;-67
2024/04/05 00:22:22;;;;;;;1999.90;999.90;;;14.00;99.90;;;;;;5066704;28;20089;-67
2024/04/05 00:24:48;;;;;;;1999.90;999.90;;;13.90;99.90;;;;;;5066517;28;20012;-67
2024/04/05 00:27:14;;;;;;;1999.90;999.90;;;13.80;99.90;;;;;;5068909;28;20071;-67
2024/04/05 00:29:40;;;;;;;1999.90;999.90;;;13.80;99.90;;;;;;5070368;28;20063;-67
2024/04/05 00:32:06;;;;;;;1999.90;999.90;;;13.90;99.90;;;;;;5058499;28;20438;-67
2024/04/05 00:34:32;;;;;;;1999.90;999.90;;;13.90;99.90;;;;;;5066562;28;20055;-67
2024/04/05 00:36:57;;;;;;;1999.90;999.90;;;13.90;99.90;;;;;;5061980;28;20032;-67
2024/04/05 00:39:23;;;;;;;1999.90;999.90;;;14.00;99.90;;;;;;5069984;28;20107;-67
2024/04/05 00:41:49;;;;;;;1999.90;999.90;;;14.00;99.90;;;;;;5066049;28;20028;-67
2024/04/05 00:44:14;;;;;;;1999.90;999.90;;;14.00;99.90;;;;;;5071145;28;20484;-67
2024/04/05 00:46:40;;;;;;;1999.90;999.90;;;14.00;99.90;;;;;;5061994;28;20079;-67
2024/04/05 00:49:08;;;;;;;1999.90;999.90;;;14.00;99.90;;;;;;5056753;28;20370;-67
2024/04/05 00:51:34;;;;;;;1999.90;999.90;;;13.90;99.90;;;;;;5056984;28;20025;-67
2024/04/05 00:54:01;;;;;;;1999.90;999.90;;;13.90;99.90;;;;;;5068729;28;20427;-67
2024/04/05 00:56:29;;;;;;;1999.90;999.90;;;13.90;99.90;;;;;;5063159;28;20021;-67
2024/04/05 00:58:55;;;;;;;1999.90;999.90;;;13.70;99.90;;;;;;5053703;28;20215;-67
2024/04/05 01:01:21;;;;;;;1999.90;999.90;;;13.70;99.90;;;;;;5064442;28;20047;-67
2024/04/05 01:03:46;;;;;;;1999.90;999.90;;;13.60;99.90;;;;;;5061983;28;20040;-67
2024/04/05 01:06:13;;;;;;;1999.90;999.90;;;13.50;99.90;;;;;;5057770;28;20192;-67
2024/04/05 01:08:38;;;;;;;1999.90;999.90;;;13.40;99.90;;;;;;5067319;28;20031;-67
2024/04/05 01:11:04;;;;;;;1999.90;999.90;;;13.40;99.90;;;;;;5065113;28;20032;-67
2024/04/05 01:13:30;;;;;;;1999.90;999.90;;;13.40;99.90;;;;;;5064401;28;20020;-67
2024/04/05 01:15:56;;;;;;;1999.90;999.90;;;13.40;99.90;;;;;;5061154;28;20033;-67
2024/04/05 01:18:22;;;;;;;1999.90;999.90;;;13.50;99.90;;;;;;5058547;28;20033;-67
2024/04/05 01:20:52;;;;;;;1999.90;999.90;;;13.50;99.90;;;;;;5059860;28;20028;-67
2024/04/05 01:23:21;;;;;;;1999.90;999.90;;;13.50;99.90;;;;;;5070549;28;20540;-67
2024/04/05 01:25:47;;;;;;;1999.90;999.90;;;13.60;99.90;;;;;;5065286;28;20032;-67
2024/04/05 01:28:14;;;;;;;1999.90;999.90;;;13.70;99.90;;;;;;5064380;28;20483;-67
2024/04/05 01:30:40;;;;;;;1999.90;999.90;;;13.80;99.90;;;;;;5070506;28;20037;-67
2024/04/05 01:33:06;;;;;;;1999.90;999.90;;;13.90;99.90;;;;;;5068626;28;20025;-67
2024/04/05 01:35:32;;;;;;;1999.90;999.90;;;14.10;99.90;;;;;;5067783;28;20354;-67
2024/04/05 01:37:59;;;;;;;1999.90;999.90;;;14.20;99.90;;;;;;5059139;28;20075;-67
2024/04/05 01:40:25;;;;;;;1999.90;999.90;;;14.30;99.90;;;;;;5066790;28;20032;-67
2024/04/05 01:42:51;;;;;;;1999.90;999.90;;;14.40;99.90;;;;;;5060986;28;20049;-67
2024/04/05 01:45:17;;;;;;;1999.90;999.90;;;14.40;99.90;;;;;;5062931;28;20029;-67
2024/04/05 01:47:43;;;;;;;1999.90;999.90;;;14.50;99.90;;;;;;5068828;28;20465;-67
2024/04/05 01:50:09;;;;;;;1999.90;999.90;;;14.60;99.90;;;;;;5068082;28;20493;-67
2024/04/05 01:52:35;;;;;;;1999.90;999.90;;;14.50;99.90;;;;;;5051827;28;20035;-67
2024/04/05 01:55:01;;;;;;;1999.90;999.90;;;14.40;99.90;;;;;;5065222;28;20055;-67
2024/04/05 01:57:27;;;;;;;1999.90;999.90;;;14.20;99.90;;;;;;5069017;28;20107;-67
2024/04/05 01:59:54;;;;;;;1999.90;999.90;;;14.30;99.90;;;;;;5068179;28;20131;-67
2024/04/05 02:02:21;;;;;;;1999.90;999.90;;;14.30;99.90;;;;;;5066451;28;20025;-67
2024/04/05 02:04:50;;;;;;;1999.90;999.90;;;14.20;99.90;;;;;;5067031;28;20021;-67
2024/04/05 02:07:16;;;;;;;1999.90;999.90;;;14.30;99.90;;;;;;5068603;28;20095;-67
2024/04/05 02:09:45;;;;;;;1999.90;999.90;;;14.40;99.90;;;;;;5063742;28;20119;-67
2024/04/05 02:12:11;;;;;;;1999.90;999.90;;;14.40;99.90;;;;;;5071139;28;20064;-67
2024/04/05 02:14:36;;;;;;;1999.90;999.90;;;14.40;99.90;;;;;;5058003;28;20055;-67
2024/04/05 02:17:02;;;;;;;1999.90;999.90;;;14.50;99.90;;;;;;5065514;28;20032;-67
2024/04/05 02:19:28;;;;;;;1999.90;999.90;;;14.50;99.90;;;;;;5069834;28;20051;-67
2024/04/05 02:21:53;;;;;;;1999.90;999.90;;;14.40;99.90;;;;;;5068101;28;20086;-67
2024/04/05 02:24:19;;;;;;;1999.90;999.90;;;14.50;99.90;;;;;;5063918;28;20040;-66
2024/04/05 02:26:45;;;;;;;1999.90;999.90;;;14.50;99.90;;;;;;5059422;28;20021;-68
2024/04/05 02:29:10;;;;;;;1999.90;999.90;;;14.50;99.90;;;;;;5066951;28;20028;-66
2024/04/05 02:31:36;;;;;;;1999.90;999.90;;;14.40;99.90;;;;;;5058183;28;20029;-66
2024/04/05 02:34:03;;;;;;;1999.90;999.90;;;14.40;99.90;;;;;;5059130;28;20479;-66
2024/04/05 02:36:29;;;;;;;1999.90;999.90;;;14.40;99.90;;;;;;5062745;28;20047;-65
2024/04/05 02:38:55;;;;;;;1999.90;999.90;;;14.40;99.90;;;;;;5055238;28;20083;-65
2024/04/05 02:41:21;;;;;;;1999.90;999.90;;;14.40;99.90;;;;;;5063229;28;20046;-66
2024/04/05 02:43:47;;;;;;;1999.90;999.90;;;14.40;99.90;;;;;;5058073;28;20021;-66
2024/04/05 02:46:12;;;;;;;1999.90;999.90;;;14.30;99.90;;;;;;5061013;28;20107;-66
2024/04/05 02:48:38;;;;;;;1999.90;999.90;;;14.20;99.90;;;;;;5066037;28;20035;-65
2024/04/05 02:51:04;;;;;;;1999.90;999.90;;;14.40;99.90;;;;;;5060829;28;20032;-66
2024/04/05 02:53:29;;;;;;;1999.90;999.90;;;14.40;99.90;;;;;;5059850;28;20370;-65
2024/04/05 02:55:55;;;;;;;1999.90;999.90;;;14.40;99.90;;;;;;5055497;28;20642;-66
2024/04/05 02:58:21;;;;;;;1999.90;999.90;;;14.50;99.90;;;;;;5062419;28;20023;-66
2024/04/05 03:00:50;;;;;;;1999.90;999.90;;;14.60;99.90;;;;;;5069565;28;20024;-65
2024/04/05 03:03:16;;;;;;;1999.90;999.90;;;14.50;99.90;;;;;;5067523;28;20108;-66
2024/04/05 03:05:41;;;;;;;1999.90;999.90;;;14.40;99.90;;;;;;5062318;28;20112;-66
2024/04/05 03:08:07;;;;;;;1999.90;999.90;;;14.40;99.90;;;;;;5061494;28;20024;-66
2024/04/05 03:10:33;;;;;;;1999.90;999.90;;;14.30;99.90;;;;;;5059164;28;20052;-65
2024/04/05 03:12:58;;;;;;;1999.90;999.90;;;14.30;99.90;;;;;;5067335;28;20473;-65
2024/04/05 03:15:24;;;;;;;1999.90;999.90;;;14.30;99.90;;;;;;5059082;28;20165;-66
2024/04/05 03:17:50;;;;;;;1999.90;999.90;;;14.40;99.90;;;;;;5058907;28;20040;-66
2024/04/05 03:20:16;;;;;;;1999.90;999.90;;;14.30;99.90;;;;;;5066451;28;20052;-66
2024/04/05 03:22:42;;;;;;;1999.90;999.90;;;14.20;99.90;;;;;;5057118;28;20087;-65
2024/04/05 03:25:08;;;;;;;1999.90;999.90;;;14.20;99.90;;;;;;5057625;28;20355;-66
2024/04/05 03:27:34;;;;;;;1999.90;999.90;;;14.10;99.90;;;;;;5064977;28;20035;-66
2024/04/05 03:30:00;;;;;;;1999.90;999.90;;;14.10;99.90;;;;;;5063886;28;20182;-66
2024/04/05 03:32:26;;;;;;;1999.90;999.90;;;14.20;99.90;;;;;;5063156;28;20040;-66
2024/04/05 03:34:51;;;;;;;1999.90;999.90;;;14.20;99.90;;;;;;5057215;28;20025;-66
2024/04/05 03:37:17;;;;;;;1999.90;999.90;;;14.30;99.90;;;;;;5055664;28;20029;-65
2024/04/05 03:39:43;;;;;;;1999.90;999.90;;;14.20;99.90;;;;;;5052701;28;20040;-66
2024/04/05 03:42:09;;;;;;;1999.90;999.90;;;14.10;99.90;;;;;;5059649;28;20036;-66
2024/04/05 03:44:34;;;;;;;1999.90;999.90;;;14.10;99.90;;;;;;5057607;28;20050;-66
2024/04/05 03:47:00;;;;;;;1999.90;999.90;;;14.00;99.90;;;;;;5063228;28;20021;-66
2024/04/05 03:49:28;;;;;;;1999.90;999.90;;;14.00;99.90;;;;;;5057878;28;20041;-66
2024/04/05 03:51:54;;;;;;;1999.90;999.90;;;14.10;99.90;;;;;;5054606;28;20033;-66
2024/04/05 03:54:20;;;;;;;1999.90;999.90;;;14.10;99.90;;;;;;5052654;28;20500;-67
2024/04/05 03:56:46;;;;;;;1999.90;999.90;;;14.00;99.90;;;;;;5052496;28;20090;-64
2024/04/05 03:59:11;;;;;;;1999.90;999.90;;;14.10;99.90;;;;;;5053660;28;20028;-64
2024/04/05 04:01:39;;;;;;;1999.90;999.90;;;14.00;99.90;;;;;;5054220;28;20028;-64
2024/04/05 04:04:05;;;;;;;1999.90;999.90;;;14.00;99.90;;;;;;5062497;28;20025;-64
2024/04/05 04:06:30;;;;;;;1999.90;999.90;;;14.00;99.90;;;;;;5056875;28;20074;-64
2024/04/05 04:08:56;;;;;;;1999.90;999.90;;;14.00;99.90;;;;;;5064250;28;20025;-64
2024/04/05 04:11:22;;;;;;;1999.90;999.90;;;14.00;99.90;;;;;;5052585;28;20037;-64
2024/04/05 04:13:48;;;;;;;1999.90;999.90;;;14.00;99.90;;;;;;5055654;28;20025;-64
2024/04/05 04:16:16;;;;;;;1999.90;999.90;;;14.00;99.90;;;;;;5053210;28;20021;-64
2024/04/05 04:18:45;;;;;;;1999.90;999.90;;;14.00;99.90;;;;;;5070112;28;20094;-64
2024/04/05 04:21:11;;;;;;;1999.90;999.90;;;14.00;99.90;;;;;;5054491;28;20020;-67
2024/04/05 04:23:37;;;;;;;1999.90;999.90;;;14.00;99.90;;;;;;5058590;28;20432;-64
2024/04/05 04:26:03;;;;;;;1999.90;999.90;;;13.90;99.90;;;;;;5057916;28;20025;-64
2024/04/05 04:28:29;;;;;;;1999.90;999.90;;;13.90;99.90;;;;;;5054501;28;20090;-65
2024/04/05 04:30:54;;;;;;;1999.90;999.90;;;14.00;99.90;;;;;;5060622;28;20120;-63
2024/04/05 04:33:20;;;;;;;1999.90;999.90;;;14.00;99.90;;;;;;5059288;28;20036;-64
2024/04/05 04:35:46;;;;;;;1999.90;999.90;;;14.00;99.90;;;;;;5059655;28;20478;-64
2024/04/05 04:38:12;;;;;;;1999.90;999.90;;;14.00;99.90;;;;;;5067936;28;20029;-67
2024/04/05 04:40:38;;;;;;;1999.90;999.90;;;14.20;99.90;;;;;;5067392;28;20079;-67
2024/04/05 04:43:05;;;;;;;1999.90;999.90;;;14.20;99.90;;;;;;5063843;28;20029;-66
2024/04/05 04:45:30;;;;;;;1999.90;999.90;;;14.20;99.90;;;;;;5063112;28;20020;-64
2024/04/05 04:47:56;;;;;;;1999.90;999.90;;;14.10;99.90;;;;;;5070349;28;20029;-64
2024/04/05 04:50:22;;;;;;;1999.90;999.90;;;14.00;99.90;;;;;;5028502;28;1155212;-64
2024/04/05 04:52:48;;;;;;;1999.90;999.90;;;14.00;99.90;;;;;;5070285;28;20017;-65
2024/04/05 04:55:14;;;;;;;1999.90;999.90;;;14.00;99.90;;;;;;5071980;28;20127;-66
2024/04/05 04:57:39;;;;;;;1999.90;999.90;;;14.00;99.90;;;;;;5069830;28;20690;-65
2024/04/05 05:00:06;;;;;;;1999.90;999.90;;;14.00;99.90;;;;;;5066708;28;20520;-65
2024/04/05 05:02:31;;;;;;;1999.90;999.90;;;14.00;99.90;;;;;;5062736;28;20052;-64
2024/04/05 05:04:57;;;;;;;1999.90;999.90;;;14.00;99.90;;;;;;5055212;28;20522;-65
2024/04/05 05:07:23;;;;;;;1999.90;999.90;;;13.90;99.90;;;;;;5069736;28;20031;-64
2024/04/05 05:09:49;;;;;;;1999.90;999.90;;;14.00;99.90;;;;;;5053823;28;20056;-65
2024/04/05 05:12:14;;;;;;;1999.90;999.90;;;14.00;99.90;;;;;;5057457;28;20052;-65
2024/04/05 05:14:40;;;;;;;1999.90;999.90;;;14.00;99.90;;;;;;5069443;28;20028;-65
2024/04/05 05:17:06;;;;;;;1999.90;999.90;;;14.00;99.90;;;;;;5070898;28;20388;-65
2024/04/05 05:19:32;;;;;;;1999.90;999.90;;;13.90;99.90;;;;;;5062326;28;20029;-64
2024/04/05 05:21:57;;;;;;;1999.90;999.90;;;13.90;99.90;;;;;;5066491;28;20024;-65
2024/04/05 05:24:23;;;;;;;1999.90;999.90;;;13.90;99.90;;;;;;5053929;28;20032;-64
2024/04/05 05:26:49;;;;;;;1999.90;999.90;;;14.00;99.90;;;;;;5061613;28;20025;-65
2024/04/05 05:29:15;;;;;;;1999.90;999.90;;;14.00;99.90;;;;;;5065587;28;20044;-65
2024/04/05 05:31:41;;;;;;;1999.90;999.90;;;14.00;99.90;;;;;;5070741;28;20024;-65
2024/04/05 05:34:07;;;;;;;1999.90;999.90;;;14.00;99.90;;;;;;5063509;28;20032;-64
2024/04/05 05:36:33;;;;;;;1999.90;999.90;;;14.10;99.90;;;;;;5052313;28;20032;-65
2024/04/05 05:39:00;;;;;;;1999.90;999.90;;;14.10;99.90;;;;;;5053038;28;20147;-65
2024/04/05 05:41:26;;;;;;;1999.90;999.90;;;14.20;99.90;;;;;;5065211;28;20031;-64
2024/04/05 05:43:52;;;;;;;1999.90;999.90;;;14.20;99.90;;;;;;5062270;28;20476;-65
2024/04/05 05:46:18;;;;;;;1999.90;999.90;;;14.30;99.90;;;;;;5063075;28;20121;-65
2024/04/05 05:48:43;;;;;;;1999.90;999.90;;;14.50;99.90;;;;;;5068551;28;20024;-65
2024/04/05 05:51:09;;;;;;;1999.90;999.90;;;14.40;99.90;;;;;;5069441;28;20040;-65
2024/04/05 05:53:35;;;;;;;1999.90;999.90;;;14.40;99.90;;;;;;5071176;28;20052;-65
2024/04/05 05:56:02;;;;;;;1999.90;999.90;;;14.50;99.90;;;;;;5071381;28;20563;-65
2024/04/05 05:58:29;;;;;;;1999.90;999.90;;;14.60;99.90;;;;;;5062663;28;20104;-65
2024/04/05 06:00:54;;;;;;;1999.90;999.90;;;14.60;99.90;;;;;;5068392;28;20028;-64
2024/04/05 06:03:20;;;;;;;1999.90;999.90;;;14.60;99.90;;;;;;5070533;28;20032;-65
2024/04/05 06:05:50;;;;;;;1999.90;999.90;;;14.70;99.90;;;;;;5058617;28;20024;-65
2024/04/05 06:08:16;;;;;;;1999.90;999.90;;;14.70;99.90;;;;;;5068404;28;20062;-65
2024/04/05 06:10:41;;;;;;;1999.90;999.90;;;14.70;99.90;;;;;;5065266;28;20024;-65
2024/04/05 06:13:07;;;;;;;1999.90;999.90;;;14.80;99.90;;;;;;5066404;28;20510;-64
2024/04/05 06:15:33;;;;;;;1999.90;999.90;;;15.00;99.90;;;;;;5063214;28;20029;-65
2024/04/05 06:17:58;;;;;;;1999.90;999.90;;;15.00;99.90;;;;;;5057557;28;20397;-65
2024/04/05 06:20:24;;;;;;;1999.90;999.90;;;15.00;99.90;;;;;;5063723;28;20682;-64
2024/04/05 06:22:50;;;;;;;1999.90;999.90;;;15.10;99.90;;;;;;5058627;28;20028;-65
2024/04/05 06:25:16;;;;;;;1999.90;999.90;;;15.10;99.90;;;;;;5070525;28;20101;-65
2024/04/05 06:27:42;;;;;;;1999.90;999.90;;;15.20;99.90;;;;;;5054626;28;20027;-65
2024/04/05 06:30:10;;;;;;;1999.90;999.90;;;15.10;99.90;;;;;;5062945;28;20036;-65
2024/04/05 06:32:35;;;;;;;1999.90;999.90;;;15.00;99.90;;;;;;5054593;28;20054;-65
2024/04/05 06:35:01;;;;;;;1999.90;999.90;;;15.00;99.90;;;;;;5071219;28;20032;-65
2024/04/05 06:37:28;;;;;;;1999.90;999.90;;;15.10;99.90;;;;;;5058394;28;20024;-67
2024/04/05 06:39:54;;;;;;;1999.90;999.90;;;15.10;99.90;;;;;;5054792;28;20385;-66
2024/04/05 06:42:23;;;;;;;1999.90;999.90;;;15.10;99.90;;;;;;5057325;28;20024;-66
2024/04/05 06:44:52;;;;;;;1999.90;999.90;;;15.10;99.90;;;;;;5062702;28;20480;-67
2024/04/05 06:47:18;;;;;;;1999.90;999.90;;;15.10;99.90;;;;;;5061442;28;20378;-66
2024/04/05 06:49:44;;;;;;;1999.90;999.90;;;15.10;99.90;;;;;;5065607;28;20029;-67
2024/04/05 06:52:10;;;;;;;1999.90;999.90;;;15.10;99.90;;;;;;5069345;28;20370;-67
2024/04/05 06:54:45;;;;;;;1999.90;999.90;;;15.10;99.90;;;;;;5070901;28;20024;-66
2024/04/05 06:57:11;;;;;;;1999.90;999.90;;;15.10;99.90;;;;;;5062318;28;20032;-67
2024/04/05 06:59:38;;;;;;;1999.90;999.90;;;15.10;99.90;;;;;;5052174;28;20381;-67
2024/04/05 07:02:04;;;;;;;1999.90;999.90;;;15.10;99.90;;;;;;5057692;28;20035;-66
2024/04/05 07:04:33;;;;;;;1999.90;999.90;;;15.20;99.90;;;;;;5056471;28;20063;-67
2024/04/05 07:06:59;;;;;;;1999.90;999.90;;;15.30;99.90;;;;;;5070782;28;20032;-67
2024/04/05 07:09:27;;;;;;;1999.90;999.90;;;15.50;99.90;;;;;;5061454;28;20025;-66
2024/04/05 07:11:53;;;;;;;1999.90;999.90;;;15.50;99.90;;;;;;5051067;28;20113;-67
2024/04/05 07:14:19;;;;;;;1999.90;999.90;;;15.60;99.90;;;;;;5049698;28;20580;-67
2024/04/05 07:16:48;;;;;;;1999.90;999.90;;;15.60;99.90;;;;;;5050484;28;20033;-68
2024/04/05 07:19:17;;;;;;;1999.90;999.90;;;15.50;99.90;;;;;;5050598;28;20036;-67
2024/04/05 07:21:47;;;;;;;1999.90;999.90;;;15.60;99.90;;;;;;5050321;28;20421;-67
2024/04/05 07:24:14;;;;;;;1999.90;999.90;;;15.70;99.90;;;;;;5050740;28;20017;-68
2024/04/05 07:26:40;;;;;;;1999.90;999.90;;;15.80;99.90;;;;;;5050677;28;20024;-68
2024/04/05 07:29:06;;;;;;;1999.90;999.90;;;15.90;99.90;;;;;;5050719;28;20037;-67
2024/04/05 07:31:36;;;;;;;1999.90;999.90;;;16.00;99.90;;;;;;5050308;28;20039;-66
2024/04/05 07:34:02;;;;;;;1999.90;999.90;;;16.10;99.90;;;;;;5050677;28;20373;-68
2024/04/05 07:36:29;;;;;;;1999.90;999.90;;;16.20;99.90;;;;;;5064604;28;20033;-67
2024/04/05 07:38:54;;;;;;;1999.90;999.90;;;16.20;99.90;;;;;;5066011;28;20095;-67
2024/04/05 07:41:21;;;;;;;1999.90;999.90;;;16.30;99.90;;;;;;5048805;28;20074;-68
2024/04/05 07:43:46;;;;;;;1999.90;999.90;;;16.40;99.90;;;;;;5065733;28;20028;-67
2024/04/05 07:46:12;;;;;;;1999.90;999.90;;;16.40;99.90;;;;;;5054878;28;20029;-67
2024/04/05 07:48:38;;;;;;;1999.90;999.90;;;16.50;99.90;;;;;;5053727;28;20082;-67
2024/04/05 07:51:04;;;;;;;1999.90;999.90;;;16.70;99.90;;;;;;5055835;28;20033;-67
2024/04/05 07:53:30;;;;;;;1999.90;999.90;;;16.80;99.90;;;;;;5065595;28;20022;-67
2024/04/05 07:55:55;;;;;;;1999.90;999.90;;;16.80;99.90;;;;;;5053579;28;20032;-68
2024/04/05 07:58:21;;;;;;;1999.90;999.90;;;16.80;99.90;;;;;;5057451;28;20108;-67
2024/04/05 08:00:48;;;;;;;1999.90;999.90;;;16.80;99.90;;;;;;5064261;28;20035;-68
2024/04/05 08:03:14;;;;;;;1999.90;999.90;;;16.90;99.90;;;;;;5052500;28;20036;-68
2024/04/05 08:05:40;;;;;;;1999.90;999.90;;;16.90;99.90;;;;;;5053947;28;20029;-67
2024/04/05 08:08:06;;;;;;;1999.90;999.90;;;16.90;99.90;;;;;;5070989;28;20033;-67
2024/04/05 08:10:31;;;;;;;1999.90;999.90;;;16.70;99.90;;;;;;5069950;28;20047;-67
2024/04/05 08:12:58;;;;;;;1999.90;999.90;;;16.70;99.90;;;;;;5053142;28;20037;-67
2024/04/05 08:15:24;;;;;;;1999.90;999.90;;;16.80;99.90;;;;;;5053062;28;20036;-67
2024/04/05 08:17:50;;;;;;;1999.90;999.90;;;16.70;99.90;;;;;;5053058;28;20031;-67
2024/04/05 08:20:16;;;;;;;1999.90;999.90;;;16.70;99.90;;;;;;5060006;28;20025;-67
2024/04/05 08:22:42;;;;;;;1999.90;999.90;;;16.70;99.90;;;;;;5067491;28;20623;-67
2024/04/05 08:25:08;;;;;;;1999.90;999.90;;;16.60;99.90;;;;;;5053408;28;20112;-67
2024/04/05 08:27:34;;;;;;;1999.90;999.90;;;16.70;99.90;;;;;;5052850;28;20035;-67
2024/04/05 08:30:00;;;;;;;1999.90;999.90;;;16.80;99.90;;;;;;5054456;28;20041;-67
2024/04/05 08:32:26;;;;;;;1999.90;999.90;;;16.80;99.90;;;;;;5052787;28;20090;-67
2024/04/05 08:34:51;;;;;;;1999.90;999.90;;;16.70;99.90;;;;;;5068185;28;20035;-66
2024/04/05 08:37:18;;;;;;;1999.90;999.90;;;16.80;99.90;;;;;;5056861;28;20020;-66
2024/04/05 08:39:44;;;;;;;1999.90;999.90;;;16.70;99.90;;;;;;5067408;28;20077;-67
2024/04/05 08:42:14;;;;;;;1999.90;999.90;;;16.70;99.90;;;;;;5062432;28;20037;-66
2024/04/05 08:44:46;;;;;;;1999.90;999.90;;;16.60;99.90;;;;;;5066778;28;20032;-66
2024/04/05 08:47:12;;;;;;;1999.90;999.90;;;16.60;99.90;;;;;;5052633;28;20127;-67
2024/04/05 08:49:38;;;;;;;1999.90;999.90;;;16.90;99.90;;;;;;5052840;28;20459;-66
2024/04/05 08:52:04;;;;;;;1999.90;999.90;;;17.00;99.90;;;;;;5055507;28;20042;-66
2024/04/05 08:54:30;;;;;;;1999.90;999.90;;;17.20;99.90;;;;;;5064726;28;20029;-67
2024/04/05 08:56:58;;;;;;;1999.90;999.90;;;17.10;99.90;;;;;;5051698;28;20082;-67
2024/04/05 08:59:28;;;;;;;1999.90;999.90;;;17.10;99.90;;;;;;5052320;28;20029;-66
2024/04/05 09:01:59;;;;;;;1999.90;999.90;;;17.00;99.90;;;;;;5067122;28;20032;-66
2024/04/05 09:04:25;;;;;;;1999.90;999.90;;;17.10;99.90;;;;;;5054096;28;20519;-65
2024/04/05 09:06:55;;;;;;;1999.90;999.90;;;17.10;99.90;;;;;;5056047;28;20818;-67
2024/04/05 09:09:31;;;;;;;1999.90;999.90;;;17.20;99.90;;;;;;5066257;28;20013;-67
2024/04/05 09:12:15;;;;;;;1999.90;999.90;;;17.30;99.90;;;;;;5060324;28;20116;-66
2024/04/05 09:14:41;;;;;;;1999.90;999.90;;;17.40;99.90;;;;;;5071068;28;20031;-65
2024/04/05 09:17:16;;;;;;;1999.90;999.90;;;17.20;99.90;;;;;;5068169;28;20112;-65
2024/04/05 09:19:42;;;;;;;1999.90;999.90;;;17.40;99.90;;;;;;5063167;28;20060;-66
2024/04/05 09:22:17;;;;;;;1999.90;999.90;;;17.60;99.90;;;;;;5056814;28;20105;-67
2024/04/05 09:24:44;;;;;;;1999.90;999.90;;;17.60;99.90;;;;;;5069401;28;20025;-66
2024/04/05 09:27:10;;;;;;;1999.90;999.90;;;17.70;99.90;;;;;;5066529;28;20033;-65
2024/04/05 09:29:37;;;;;;;1999.90;999.90;;;17.80;99.90;;;;;;5052229;28;20043;-66
2024/04/05 09:32:18;;;;;;;1999.90;999.90;;;17.90;99.90;;;;;;5060923;28;20031;-66
2024/04/05 09:34:46;;;;;;;1999.90;999.90;;;18.00;99.90;;;;;;5059979;28;20071;-66
2024/04/05 09:37:14;;;;;;;1999.90;999.90;;;18.10;99.90;;;;;;5052596;28;20036;-66
2024/04/05 09:39:41;;;;;;;1999.90;999.90;;;18.30;99.90;;;;;;5057171;28;20021;-67
2024/04/05 09:42:10;;;;;;;1999.90;999.90;;;18.30;99.90;;;;;;5061927;28;20529;-67
2024/04/05 09:44:40;;;;;;;1999.90;999.90;;;18.50;99.90;;;;;;5063687;28;20075;-67
2024/04/05 09:47:06;;;;;;;1999.90;999.90;;;18.40;99.90;;;;;;5065863;28;20390;-67
2024/04/05 09:49:32;;;;;;;1999.90;999.90;;;18.30;99.90;;;;;;5065600;28;20619;-67
2024/04/05 09:52:03;;;;;;;1999.90;999.90;;;18.30;99.90;;;;;;5069598;28;20078;-66
2024/04/05 09:54:33;;;;;;;1999.90;999.90;;;18.20;99.90;;;;;;5063124;28;20027;-66
2024/04/05 09:56:59;;;;;;;1999.90;999.90;;;18.20;99.90;;;;;;5064781;28;20103;-67
2024/04/05 09:59:29;;;;;;;1999.90;999.90;;;18.00;99.90;;;;;;5065166;28;20018;-66
2024/04/05 10:01:55;;;;;;;1999.90;999.90;;;18.00;99.90;;;;;;5057312;28;20477;-67
2024/04/05 10:04:21;;;;;;;1999.90;999.90;;;18.00;99.90;;;;;;5067422;28;20020;-67
2024/04/05 10:06:47;;;;;;;1999.90;999.90;;;18.10;99.90;;;;;;5050485;28;20392;-67
2024/04/05 10:09:21;;;;;;;1999.90;999.90;;;17.90;99.90;;;;;;5064431;28;20020;-67
2024/04/05 10:11:50;;;;;;;1999.90;999.90;;;17.90;99.90;;;;;;5064475;28;20507;-67
2024/04/05 10:14:31;;;;;;;1999.90;999.90;;;17.90;99.90;;;;;;5062481;28;20031;-67
2024/04/05 10:17:14;;;;;;;1999.90;999.90;;;18.00;99.90;;;;;;5066553;28;20524;-67
2024/04/05 10:19:41;;;;;;;1999.90;999.90;;;18.00;99.90;;;;;;5050686;28;20136;-67
2024/04/05 10:22:09;;;;;;;1999.90;999.90;;;18.10;99.90;;;;;;5062322;28;20470;-67
2024/04/05 10:24:36;;;;;;;1999.90;999.90;;;18.10;99.90;;;;;;5064751;28;20040;-67
2024/04/05 10:27:04;;;;;;;1999.90;999.90;;;18.20;99.90;;;;;;5061798;28;20099;-68
2024/04/05 10:29:30;;;;;;;1999.90;999.90;;;18.20;99.90;;;;;;5065096;28;20028;-68
2024/04/05 10:32:06;;;;;;;1999.90;999.90;;;18.10;99.90;;;;;;5055604;28;20143;-67
2024/04/05 10:34:33;;;;;;;1999.90;999.90;;;18.30;99.90;;;;;;5066537;28;20517;-68
2024/04/05 10:37:03;;;;;;;1999.90;999.90;;;18.30;99.90;;;;;;5065218;28;20132;-67
2024/04/05 10:39:29;;;;;;;1999.90;999.90;;;18.40;99.90;;;;;;5060635;28;20115;-67
2024/04/05 10:41:54;;;;;;;1999.90;999.90;;;18.50;99.90;;;;;;5061463;28;20099;-68
2024/04/05 10:44:20;;;;;;;1999.90;999.90;;;18.30;99.90;;;;;;5060110;28;20021;-67
2024/04/05 10:46:48;;;;;;;1999.90;999.90;;;18.30;99.90;;;;;;5062985;28;20653;-68
2024/04/05 10:49:17;;;;;;;1999.90;999.90;;;18.30;99.90;;;;;;5062386;28;20098;-68
2024/04/05 10:51:44;;;;;;;1999.90;999.90;;;18.40;99.90;;;;;;5061193;28;20072;-68
2024/04/05 10:54:11;;;;;;;1999.90;999.90;;;18.40;99.90;;;;;;5054648;28;20025;-67
2024/04/05 10:56:41;;;;;;;1999.90;999.90;;;18.50;99.90;;;;;;5067512;28;20035;-67
2024/04/05 10:59:11;;;;;;;1999.90;999.90;;;18.60;99.90;;;;;;5056301;28;20049;-67
2024/04/05 11:01:38;;;;;;;1999.90;999.90;;;18.60;99.90;;;;;;5055090;28;20110;-68
2024/04/05 11:04:12;;;;;;;1999.90;999.90;;;18.60;99.90;;;;;;5054462;28;20029;-67
2024/04/05 11:06:39;;;;;;;1999.90;999.90;;;18.70;99.90;;;;;;5060737;28;20024;-68
2024/04/05 11:09:14;;;;;;;1999.90;999.90;;;18.70;99.90;;;;;;5065330;28;20021;-68
2024/04/05 11:11:41;;;;;;;1999.90;999.90;;;18.50;99.90;;;;;;5055311;28;20035;-68
2024/04/05 11:14:09;;;;;;;1999.90;999.90;;;18.00;99.90;;;;;;5056900;28;20078;-68
2024/04/05 11:16:37;;;;;;;1999.90;999.90;;;17.70;99.90;;;;;;5056028;28;20082;-68
2024/04/05 11:19:03;;;;;;;1999.90;999.90;;;17.50;99.90;;;;;;5064644;28;20420;-68
2024/04/05 11:21:29;;;;;;;1999.90;999.90;;;17.30;99.90;;;;;;5068744;28;20113;-67
2024/04/05 11:23:56;;;;;;;1999.90;999.90;;;17.10;99.90;;;;;;5063994;28;20100;-67
2024/04/05 11:26:28;;;;;;;1999.90;999.90;;;16.80;99.90;;;;;;5064916;28;20028;-66
2024/04/05 11:28:54;;;;;;;1999.90;999.90;;;16.60;99.90;;;;;;5060739;28;20029;-67
2024/04/05 11:31:19;;;;;;;1999.90;999.90;;;16.70;99.90;;;;;;5058205;28;20043;-69
2024/04/05 11:33:45;;;;;;;1999.90;999.90;;;16.80;99.90;;;;;;5064685;28;20031;-67
2024/04/05 11:36:11;;;;;;;1999.90;999.90;;;17.10;99.90;;;;;;5070791;28;20036;-67
2024/04/05 11:38:37;;;;;;;1999.90;999.90;;;17.30;99.90;;;;;;5060320;28;20247;-67
2024/04/05 11:41:03;;;;;;;1999.90;999.90;;;17.70;99.90;;;;;;5061813;28;20087;-67
2024/04/05 11:43:29;;;;;;;1999.90;999.90;;;18.10;99.90;;;;;;5065784;28;20029;-67
2024/04/05 11:45:55;;;;;;;1999.90;999.90;;;18.00;99.90;;;;;;5064839;28;20025;-67
2024/04/05 11:48:23;;;;;;;1999.90;999.90;;;17.90;99.90;;;;;;5066827;28;20028;-68
2024/04/05 11:50:50;;;;;;;1999.90;999.90;;;17.80;99.90;;;;;;5064011;28;20115;-67
2024/04/05 11:53:16;;;;;;;1999.90;999.90;;;17.70;99.90;;;;;;5067386;28;20028;-67
2024/04/05 11:55:41;;;;;;;1999.90;999.90;;;17.70;99.90;;;;;;5062842;28;20017;-67